Time;durP1;ratioP1;P1;durP2;ratioP2;P2;SDS_P1;SDS_P2;PMS_P1;PMS_P2;Temp;Humidity;BMP_temperature;BMP_pressure;BME280_temperature;BME280_humidity;BME280_pressure;Samples;Min_cycle;Max_cycle;Signal;HPM_P1;HPM_P2
2021/04/12 00:00:32;;;;;;;0.77;0.30;;;2.00;99.90;;;;;;10479225;28;20043;-46
2021/04/12 00:06:30;;;;;;;2.08;0.45;;;2.00;99.90;;;;;;10477957;28;20245;-45
2021/04/12 00:12:02;;;;;;;1.27;0.43;;;1.80;99.90;;;;;;10436702;28;20428;-46
2021/04/12 00:17:41;;;;;;;1.02;0.38;;;1.70;99.90;;;;;;10480008;28;20036;-46
2021/04/12 00:23:05;;;;;;;1.15;0.55;;;1.70;99.90;;;;;;10472532;28;20051;-46
2021/04/12 00:28:41;;;;;;;0.75;0.52;;;1.60;99.90;;;;;;10479882;28;20086;-46
2021/04/12 00:34:22;;;;;;;1.10;0.73;;;1.60;99.90;;;;;;10472418;28;20059;-46
2021/04/12 00:39:47;;;;;;;1.20;0.38;;;1.60;99.90;;;;;;10474861;28;20043;-45
2021/04/12 00:45:41;;;;;;;0.50;0.20;;;1.50;99.90;;;;;;10476647;28;20494;-46
2021/04/12 00:51:11;;;;;;;0.82;0.30;;;1.50;99.90;;;;;;10474455;28;20041;-46
2021/04/12 00:56:35;;;;;;;0.93;0.45;;;1.60;99.90;;;;;;10478611;28;20125;-46
2021/04/12 01:02:33;;;;;;;0.90;0.35;;;1.60;99.90;;;;;;10474835;28;20067;-45
2021/04/12 01:08:13;;;;;;;1.52;0.57;;;1.60;99.90;;;;;;10450016;28;627482;-46
2021/04/12 01:13:51;;;;;;;0.82;0.40;;;1.50;99.90;;;;;;10475351;28;20566;-45
2021/04/12 01:19:35;;;;;;;0.80;0.50;;;1.50;99.90;;;;;;10471620;28;20043;-45
2021/04/12 01:25:27;;;;;;;0.73;0.30;;;1.40;99.90;;;;;;10472562;28;20052;-46
2021/04/12 01:31:28;;;;;;;0.52;0.20;;;1.40;99.90;;;;;;10473954;28;20121;-45
2021/04/12 01:36:55;;;;;;;0.60;0.25;;;1.40;99.90;;;;;;10473148;28;20036;-45
2021/04/12 01:42:46;;;;;;;0.30;0.20;;;1.50;99.90;;;;;;10476324;28;20052;-45
2021/04/12 01:48:45;;;;;;;8.35;0.70;;;1.60;99.90;;;;;;10469360;28;20036;-46
2021/04/12 01:54:29;;;;;;;0.82;0.08;;;1.70;99.90;;;;;;10472098;28;20136;-45
2021/04/12 02:00:12;;;;;;;1.52;0.57;;;1.80;99.90;;;;;;10474184;28;20032;-46
2021/04/12 02:06:10;;;;;;;1.75;0.52;;;1.80;99.90;;;;;;10474941;28;20032;-46
2021/04/12 02:11:34;;;;;;;0.52;0.20;;;1.90;99.90;;;;;;10408257;28;20047;-46
2021/04/12 02:16:55;;;;;;;2.60;0.77;;;2.00;99.90;;;;;;10432774;28;20429;-46
2021/04/12 02:22:41;;;;;;;0.65;0.10;;;2.10;99.90;;;;;;10434390;28;20041;-46
2021/04/12 02:28:28;;;;;;;0.95;0.20;;;2.10;99.90;;;;;;10431034;28;20643;-46
2021/04/12 02:34:07;;;;;;;0.22;0.10;;;2.00;99.90;;;;;;10429028;28;20039;-46
2021/04/12 02:39:50;;;;;;;0.32;0.10;;;2.00;99.90;;;;;;10431167;28;20098;-46
2021/04/12 02:45:21;;;;;;;0.28;0.10;;;2.00;99.90;;;;;;10432929;28;20527;-46
2021/04/12 02:51:04;;;;;;;0.10;0.05;;;2.10;99.90;;;;;;10430949;28;20040;-46
2021/04/12 02:56:33;;;;;;;0.20;0.00;;;2.60;99.90;;;;;;10430285;28;20060;-46
2021/04/12 03:02:32;;;;;;;0.30;0.05;;;3.00;99.90;;;;;;10429064;28;20051;-46
2021/04/12 03:08:29;;;;;;;0.43;0.10;;;2.80;99.90;;;;;;10433818;28;20117;-46
2021/04/12 03:14:09;;;;;;;0.30;0.20;;;2.80;99.90;;;;;;10474885;28;20586;-46
2021/04/12 03:20:08;;;;;;;2.67;0.00;;;2.70;99.90;;;;;;10469174;28;20036;-46
2021/04/12 03:25:55;;;;;;;0.47;0.05;;;2.60;99.90;;;;;;10473409;28;20067;-46
2021/04/12 03:31:44;;;;;;;0.10;0.00;;;2.40;99.90;;;;;;10466041;28;20391;-47
2021/04/12 03:37:23;;;;;;;0.20;0.00;;;2.20;99.90;;;;;;10459381;28;20028;-46
2021/04/12 03:43:29;;;;;;;0.08;0.00;;;2.10;99.90;;;;;;10474624;28;20078;-47
2021/04/12 03:49:09;;;;;;;0.20;0.10;;;2.00;99.90;;;;;;10469624;28;20046;-47
2021/04/12 03:54:56;;;;;;;0.15;0.10;;;2.00;99.90;;;;;;10475989;28;20068;-46
2021/04/12 04:00:48;;;;;;;0.35;0.17;;;1.80;99.90;;;;;;10467355;28;20047;-46
2021/04/12 04:06:15;;;;;;;0.63;0.10;;;1.70;99.90;;;;;;10481650;28;20101;-47
2021/04/12 04:11:45;;;;;;;0.55;0.25;;;1.60;99.90;;;;;;10479148;28;20064;-47
2021/04/12 04:17:44;;;;;;;0.38;0.20;;;1.60;99.90;;;;;;10482452;28;20052;-47
2021/04/12 04:23:28;;;;;;;0.60;0.13;;;1.50;99.90;;;;;;10478271;28;20037;-46
2021/04/12 04:29:27;;;;;;;0.30;0.20;;;1.50;99.90;;;;;;10477647;28;20044;-46
2021/04/12 04:35:16;;;;;;;0.30;0.20;;;1.40;99.90;;;;;;10480056;28;20051;-46
2021/04/12 04:40:57;;;;;;;;;;;1.40;99.90;;;;;;10460540;28;20076;-46
2021/04/12 04:46:39;;;;;;;0.17;0.00;;;1.40;99.90;;;;;;10481492;28;20476;-46
2021/04/12 04:52:37;;;;;;;0.85;0.40;;;1.40;99.90;;;;;;10475377;28;20040;-46
2021/04/12 04:58:30;;;;;;;0.32;0.10;;;1.50;99.90;;;;;;10467306;28;20113;-46
2021/04/12 05:04:03;;;;;;;2.47;0.30;;;1.60;99.90;;;;;;10471067;28;20094;-45
2021/04/12 05:10:01;;;;;;;0.40;0.20;;;1.70;99.90;;;;;;10471388;28;20076;-45
2021/04/12 05:15:41;;;;;;;0.70;0.32;;;2.00;99.90;;;;;;10470144;28;20630;-45
2021/04/12 05:21:16;;;;;;;0.20;0.10;;;2.10;99.90;;;;;;10472413;28;20173;-45
2021/04/12 05:26:59;;;;;;;0.40;0.20;;;2.10;99.90;;;;;;10472532;28;20080;-45
2021/04/12 05:32:45;;;;;;;0.38;0.00;;;2.20;99.90;;;;;;10460956;28;20063;-45
2021/04/12 05:38:41;;;;;;;0.43;0.20;;;2.20;99.90;;;;;;10473747;28;20444;-45
2021/04/12 05:44:26;;;;;;;0.95;0.40;;;2.20;99.90;;;;;;10476211;28;20530;-46
2021/04/12 05:50:18;;;;;;;0.73;0.30;;;2.10;99.90;;;;;;10463901;28;20044;-45
2021/04/12 05:56:02;;;;;;;3.50;0.43;;;2.00;99.90;;;;;;10474285;28;20531;-45
2021/04/12 06:01:59;;;;;;;3.67;1.10;;;2.00;99.90;;;;;;10478589;28;20052;-45
2021/04/12 06:07:45;;;;;;;1.02;0.43;;;2.00;99.90;;;;;;10481443;28;20106;-46
